createdAt,value
2024-02-02T00:00:33.889Z,72.58
2024-02-02T00:03:00.427Z,71.67
2024-02-02T00:05:26.804Z,71.68
2024-02-02T00:07:53.181Z,72.65
2024-02-02T00:10:19.568Z,72.86
2024-02-02T00:12:45.948Z,73.03
2024-02-02T00:15:12.311Z,73.46
2024-02-02T00:17:38.658Z,73.62
2024-02-02T00:20:05.566Z,73.47
2024-02-02T00:22:31.969Z,73.38
2024-02-02T00:24:58.313Z,72.99
2024-02-02T00:27:24.716Z,72.52
2024-02-02T00:29:51.098Z,72.56
2024-02-02T00:32:17.471Z,72.22
2024-02-02T00:34:44.059Z,71.74
2024-02-02T00:37:10.602Z,71.98
2024-02-02T00:39:39.560Z,72.21
2024-02-02T00:42:05.987Z,72.45
2024-02-02T00:44:32.328Z,72.21
2024-02-02T00:46:58.672Z,72.37
2024-02-02T00:49:25.152Z,72.06
2024-02-02T00:51:51.722Z,71.24
2024-02-02T00:54:18.425Z,70.95
2024-02-02T00:56:44.811Z,71.51
2024-02-02T00:59:11.222Z,72.19
2024-02-02T01:01:38.144Z,72.29
2024-02-02T01:04:04.538Z,72.79
2024-02-02T01:06:30.977Z,72.70
2024-02-02T01:08:57.380Z,72.91
2024-02-02T01:11:23.764Z,73.10
2024-02-02T01:13:50.087Z,71.89
2024-02-02T01:16:16.427Z,72.07
2024-02-02T01:18:42.854Z,72.04
2024-02-02T01:21:09.333Z,71.89
2024-02-02T01:23:35.673Z,70.50
2024-02-02T01:26:02.015Z,71.74
2024-02-02T01:28:28.980Z,71.19
2024-02-02T01:30:55.448Z,72.00
2024-02-02T01:33:22.022Z,72.18
2024-02-02T01:35:48.480Z,71.94
2024-02-02T01:38:14.823Z,72.28
2024-02-02T01:40:41.151Z,72.58
2024-02-02T01:43:07.551Z,73.32
2024-02-02T01:45:34.001Z,73.37
2024-02-02T01:48:00.512Z,73.59
2024-02-02T01:50:27.036Z,74.10
2024-02-02T01:52:53.460Z,74.08
2024-02-02T01:55:23.079Z,72.80
2024-02-02T01:57:49.471Z,72.75
2024-02-02T02:00:16.190Z,72.73
2024-02-02T02:02:42.612Z,73.95
2024-02-02T02:05:10.620Z,73.67
2024-02-02T02:07:37.079Z,73.31
2024-02-02T02:10:03.482Z,74.09
2024-02-02T02:12:29.925Z,74.25
2024-02-02T02:14:56.310Z,74.56
2024-02-02T02:17:22.680Z,74.81
2024-02-02T02:19:49.274Z,74.96
2024-02-02T02:22:15.736Z,75.01
2024-02-02T02:24:42.056Z,75.27
2024-02-02T02:27:08.501Z,75.57
2024-02-02T02:29:34.860Z,75.66
2024-02-02T02:32:01.239Z,75.89
2024-02-02T02:34:28.290Z,76.13
2024-02-02T02:36:55.328Z,75.88
2024-02-02T02:39:22.018Z,76.39
2024-02-02T02:41:48.639Z,75.99
2024-02-02T02:44:15.008Z,75.01
2024-02-02T02:46:41.621Z,76.62
2024-02-02T02:49:08.106Z,77.13
2024-02-02T02:51:34.604Z,77.56
2024-02-02T02:54:01.068Z,77.47
2024-02-02T02:56:27.438Z,77.08
2024-02-02T02:58:53.756Z,76.52
2024-02-02T03:01:20.134Z,76.49
2024-02-02T03:03:46.620Z,76.09
2024-02-02T03:06:13.121Z,75.26
2024-02-02T03:08:39.489Z,75.66
2024-02-02T03:11:05.833Z,75.86
2024-02-02T03:13:32.169Z,75.70
2024-02-02T03:15:58.491Z,75.71
2024-02-02T03:18:24.987Z,75.29
2024-02-02T03:20:51.466Z,75.29
2024-02-02T03:23:17.829Z,75.60
2024-02-02T03:25:44.172Z,75.63
2024-02-02T03:28:10.511Z,75.55
2024-02-02T03:30:36.896Z,75.93
2024-02-02T03:33:03.448Z,76.48
2024-02-02T03:35:29.880Z,76.90
2024-02-02T03:37:56.212Z,76.95
2024-02-02T03:40:22.544Z,77.31
2024-02-02T03:42:48.905Z,77.54
2024-02-02T03:45:15.476Z,77.52
2024-02-02T03:47:41.878Z,77.27
2024-02-02T03:50:08.775Z,76.75
2024-02-02T03:52:35.126Z,76.23
2024-02-02T03:55:01.561Z,76.24
2024-02-02T03:57:27.985Z,75.94
2024-02-02T03:59:54.401Z,76.08
2024-02-02T04:02:20.779Z,76.60
2024-02-02T04:04:47.119Z,76.29
2024-02-02T04:07:13.457Z,76.28
2024-02-02T04:09:40.011Z,76.18
2024-02-02T04:12:06.751Z,76.05
2024-02-02T04:14:33.130Z,76.28
2024-02-02T04:16:59.489Z,76.17
2024-02-02T04:19:25.981Z,75.69
2024-02-02T04:21:52.373Z,76.04
2024-02-02T04:24:18.763Z,75.84
2024-02-02T04:26:45.112Z,75.58
2024-02-02T04:29:11.453Z,75.31
2024-02-02T04:31:37.805Z,75.28
2024-02-02T04:34:04.263Z,74.75
2024-02-02T04:36:30.881Z,74.76
2024-02-02T04:38:57.395Z,74.68
2024-02-02T04:41:24.067Z,74.79
2024-02-02T04:43:50.694Z,75.36
2024-02-02T04:46:17.171Z,75.43
2024-02-02T04:48:43.745Z,75.83
2024-02-02T04:51:10.367Z,75.25
2024-02-02T04:53:36.703Z,75.13
2024-02-02T04:56:03.306Z,74.72
2024-02-02T04:58:29.683Z,74.33
2024-02-02T05:00:56.253Z,73.94
2024-02-02T05:03:22.707Z,73.84
2024-02-02T05:05:49.081Z,73.91
2024-02-02T05:08:15.978Z,73.19
2024-02-02T05:10:42.445Z,73.63
2024-02-02T05:13:08.764Z,73.66
2024-02-02T05:15:35.192Z,74.08
2024-02-02T05:18:02.112Z,73.69
2024-02-02T05:20:29.149Z,73.58
2024-02-02T05:22:55.477Z,73.29
2024-02-02T05:25:21.824Z,73.45
2024-02-02T05:27:48.171Z,73.24
2024-02-02T05:30:14.591Z,72.58
2024-02-02T05:32:41.496Z,72.02
2024-02-02T05:35:08.374Z,72.34
2024-02-02T05:37:34.786Z,72.05
2024-02-02T05:40:01.117Z,71.89
2024-02-02T05:42:27.732Z,71.79
2024-02-02T05:44:54.201Z,71.80
2024-02-02T05:47:20.563Z,71.50
2024-02-02T05:49:46.936Z,71.67
2024-02-02T05:52:13.320Z,71.67
2024-02-02T05:54:39.673Z,71.74
2024-02-02T05:57:06.312Z,71.41
2024-02-02T05:59:32.663Z,71.76
2024-02-02T06:01:59.011Z,71.58
2024-02-02T06:04:25.410Z,71.25
2024-02-02T06:06:51.903Z,71.40
2024-02-02T06:09:18.302Z,71.20
2024-02-02T06:11:44.690Z,71.47
2024-02-02T06:14:11.033Z,71.58
2024-02-02T06:16:37.390Z,71.20
2024-02-02T06:19:03.959Z,70.91
2024-02-02T06:21:30.463Z,71.15
2024-02-02T06:23:56.898Z,71.57
2024-02-02T06:26:23.254Z,71.15
2024-02-02T06:28:49.597Z,71.32
2024-02-02T06:31:15.935Z,70.88
2024-02-02T06:33:42.364Z,71.32
2024-02-02T06:36:09.069Z,70.52
2024-02-02T06:38:35.492Z,70.62
2024-02-02T06:41:01.834Z,70.42
2024-02-02T06:43:28.182Z,70.47
2024-02-02T06:45:54.703Z,70.42
2024-02-02T06:48:21.120Z,69.78
2024-02-02T06:50:47.576Z,69.78
2024-02-02T06:53:13.915Z,69.90
2024-02-02T06:55:40.318Z,70.44
2024-02-02T06:58:28.539Z,70.15
2024-02-02T07:00:54.992Z,70.52
2024-02-02T07:03:21.529Z,70.84
2024-02-02T07:05:48.742Z,71.16
2024-02-02T07:08:15.194Z,70.43
2024-02-02T07:10:41.634Z,71.38
2024-02-02T07:13:09.357Z,70.48
2024-02-02T07:15:42.035Z,70.75
2024-02-02T07:18:37.423Z,71.26
2024-02-02T07:21:06.330Z,70.07
2024-02-02T07:23:37.387Z,70.22
2024-02-02T07:26:05.930Z,69.79
2024-02-02T07:28:36.816Z,69.65
2024-02-02T07:31:04.369Z,69.71
2024-02-02T07:33:41.058Z,70.13
2024-02-02T07:36:31.490Z,70.22
2024-02-02T07:38:58.261Z,69.56
2024-02-02T07:41:28.759Z,69.72
2024-02-02T07:43:58.765Z,70.12
2024-02-02T07:46:25.245Z,69.65
2024-02-02T07:48:53.242Z,69.37
2024-02-02T07:51:20.358Z,69.48
2024-02-02T07:53:47.323Z,68.86
2024-02-02T07:56:14.084Z,67.88
2024-02-02T07:58:40.634Z,68.85
2024-02-02T08:01:07.682Z,68.36
2024-02-02T08:03:35.194Z,67.76
2024-02-02T08:06:01.870Z,67.80
2024-02-02T08:08:31.842Z,67.53
2024-02-02T08:10:58.475Z,67.21
2024-02-02T08:13:24.797Z,67.15
2024-02-02T08:15:51.167Z,67.56
2024-02-02T08:18:17.604Z,67.35
2024-02-02T08:20:44.025Z,66.80
2024-02-02T08:23:10.364Z,67.92
2024-02-02T08:25:36.718Z,67.86
2024-02-02T08:28:03.120Z,67.40
2024-02-02T08:30:30.856Z,67.18
2024-02-02T08:32:57.725Z,67.49
2024-02-02T08:35:26.620Z,67.32
2024-02-02T08:37:58.503Z,68.05
2024-02-02T08:40:41.048Z,69.25
2024-02-02T08:43:13.339Z,68.59
2024-02-02T08:45:42.758Z,68.49
2024-02-02T08:48:24.481Z,68.78
2024-02-02T08:50:51.542Z,68.80
2024-02-02T08:53:18.106Z,69.27
2024-02-02T08:55:45.456Z,68.79
2024-02-02T08:58:21.729Z,68.30
2024-02-02T09:00:48.271Z,68.30
2024-02-02T09:03:38.287Z,67.95
2024-02-02T09:06:05.458Z,68.41
2024-02-02T09:08:37.507Z,68.01
2024-02-02T09:11:09.753Z,68.40
2024-02-02T09:13:36.175Z,68.14
2024-02-02T09:16:02.563Z,67.92
2024-02-02T09:18:34.744Z,67.81
2024-02-02T09:21:02.582Z,68.17
2024-02-02T09:23:30.289Z,67.28
2024-02-02T09:25:56.759Z,67.54
2024-02-02T09:28:25.856Z,67.68
2024-02-02T09:31:06.257Z,67.86
2024-02-02T09:33:32.591Z,67.68
2024-02-02T09:36:00.603Z,68.22
2024-02-02T09:38:27.523Z,68.00
2024-02-02T09:41:06.053Z,67.92
2024-02-02T09:43:49.109Z,67.89
2024-02-02T09:46:36.826Z,67.85
2024-02-02T09:49:21.247Z,66.24
2024-02-02T09:52:15.267Z,65.81
2024-02-02T09:55:13.852Z,65.06
2024-02-02T09:57:54.155Z,66.35
2024-02-02T10:00:23.600Z,64.50
2024-02-02T10:03:30.888Z,64.98
2024-02-02T10:06:15.870Z,64.95
2024-02-02T10:09:07.002Z,65.66
2024-02-02T10:12:07.724Z,65.35
2024-02-02T10:14:55.301Z,65.79
2024-02-02T10:17:56.982Z,66.46
2024-02-02T10:20:35.620Z,65.56
2024-02-02T10:23:20.208Z,65.88
2024-02-02T10:26:16.299Z,64.60
2024-02-02T10:28:57.214Z,65.37
2024-02-02T10:31:45.215Z,66.19
2024-02-02T10:34:25.255Z,65.05
2024-02-02T10:37:10.447Z,65.60
2024-02-02T10:40:01.368Z,65.14
2024-02-02T10:42:39.055Z,64.91
2024-02-02T10:45:16.282Z,64.67
2024-02-02T10:48:03.413Z,64.93
2024-02-02T10:51:00.934Z,64.29
2024-02-02T10:53:41.599Z,63.48
2024-02-02T10:56:46.048Z,64.25
2024-02-02T10:59:34.245Z,63.99
2024-02-02T11:02:26.705Z,64.66
2024-02-02T11:04:59.945Z,64.27
2024-02-02T11:07:42.558Z,64.73
2024-02-02T11:10:11.800Z,64.61
2024-02-02T11:12:50.302Z,64.69
2024-02-02T11:15:19.539Z,64.14
2024-02-02T11:18:06.461Z,64.57
2024-02-02T11:21:00.918Z,64.35
2024-02-02T11:23:37.938Z,65.32
2024-02-02T11:26:14.177Z,65.25
2024-02-02T11:29:05.178Z,65.44
2024-02-02T11:31:46.189Z,65.12
2024-02-02T11:34:30.646Z,65.19
2024-02-02T11:37:21.696Z,64.18
2024-02-02T11:39:57.819Z,62.53
2024-02-02T11:42:26.170Z,63.29
2024-02-02T11:44:55.502Z,63.56
2024-02-02T11:47:23.714Z,63.68
2024-02-02T11:50:00.008Z,63.26
2024-02-02T11:52:32.384Z,64.15
2024-02-02T11:55:08.101Z,64.57
2024-02-02T11:57:40.004Z,63.57
2024-02-02T12:00:14.322Z,63.78
2024-02-02T12:02:57.786Z,63.17
2024-02-02T12:05:28.182Z,61.81
2024-02-02T12:08:05.253Z,62.33
2024-02-02T12:10:37.257Z,63.67
2024-02-02T12:13:05.303Z,63.92
2024-02-02T12:15:31.831Z,62.56
2024-02-02T12:18:02.362Z,62.80
2024-02-02T12:20:30.553Z,63.28
2024-02-02T12:22:57.352Z,63.56
2024-02-02T12:25:23.922Z,62.85
2024-02-02T12:27:50.270Z,63.69
2024-02-02T12:30:16.751Z,62.92
2024-02-02T12:32:52.668Z,63.47
2024-02-02T12:35:22.555Z,63.68
2024-02-02T12:37:49.440Z,62.82
2024-02-02T12:40:16.698Z,62.28
2024-02-02T12:42:43.290Z,62.49
2024-02-02T12:45:12.781Z,63.78
2024-02-02T12:47:40.487Z,63.70
2024-02-02T12:50:08.009Z,62.79
2024-02-02T12:52:34.461Z,63.62
2024-02-02T12:55:00.809Z,63.70
2024-02-02T12:57:27.251Z,63.44
2024-02-02T12:59:53.735Z,62.58
2024-02-02T13:02:20.117Z,62.32
2024-02-02T13:04:52.576Z,63.84
2024-02-02T13:07:19.378Z,63.55
2024-02-02T13:09:50.541Z,64.11
2024-02-02T13:12:27.006Z,63.47
2024-02-02T13:14:53.490Z,62.82
2024-02-02T13:17:19.903Z,63.76
2024-02-02T13:19:47.364Z,62.46
2024-02-02T13:22:26.468Z,62.05
2024-02-02T13:24:53.992Z,62.72
2024-02-02T13:27:21.886Z,63.49
2024-02-02T13:29:58.655Z,64.17
2024-02-02T13:32:25.843Z,62.57
2024-02-02T13:34:52.723Z,63.22
2024-02-02T13:37:19.117Z,62.56
2024-02-02T13:39:46.504Z,63.32
2024-02-02T13:42:13.146Z,62.67
2024-02-02T13:44:39.512Z,63.17
2024-02-02T13:47:11.634Z,62.04
2024-02-02T13:49:38.032Z,62.00
2024-02-02T13:52:07.263Z,62.41
2024-02-02T13:54:36.849Z,62.05
2024-02-02T13:57:03.644Z,61.81
2024-02-02T13:59:30.408Z,61.72
2024-02-02T14:02:06.843Z,61.55
2024-02-02T14:04:33.252Z,60.99
2024-02-02T14:07:00.498Z,61.15
2024-02-02T14:09:27.504Z,61.88
2024-02-02T14:12:00.617Z,61.32
2024-02-02T14:14:27.330Z,62.25
2024-02-02T14:17:03.007Z,62.31
2024-02-02T14:19:29.577Z,62.17
2024-02-02T14:22:06.661Z,62.23
2024-02-02T14:24:34.098Z,61.78
2024-02-02T14:27:02.748Z,61.36
2024-02-02T14:29:40.078Z,61.08
2024-02-02T14:32:07.132Z,61.72
2024-02-02T14:34:33.863Z,61.57
2024-02-02T14:37:00.353Z,61.62
2024-02-02T14:39:27.003Z,61.66
2024-02-02T14:41:54.379Z,60.98
2024-02-02T14:44:20.882Z,61.32
2024-02-02T14:46:47.671Z,62.02
2024-02-02T14:49:14.089Z,62.78
2024-02-02T14:51:40.851Z,62.84
2024-02-02T14:54:08.044Z,63.52
2024-02-02T14:56:34.920Z,63.41
2024-02-02T14:59:01.347Z,63.45
2024-02-02T15:01:28.002Z,62.99
2024-02-02T15:03:54.954Z,63.36
2024-02-02T15:06:21.803Z,62.90
2024-02-02T15:08:48.174Z,62.88
2024-02-02T15:11:14.494Z,64.83
2024-02-02T15:13:41.800Z,63.78
2024-02-02T15:16:08.134Z,65.24
2024-02-02T15:18:34.725Z,65.41
2024-02-02T15:21:01.230Z,65.84
2024-02-02T15:23:27.633Z,65.84
2024-02-02T15:25:54.063Z,65.51
2024-02-02T15:28:20.520Z,65.86
2024-02-02T15:30:47.011Z,66.24
2024-02-02T15:33:13.515Z,66.36
2024-02-02T15:35:39.916Z,66.38
2024-02-02T15:38:06.267Z,66.42
2024-02-02T15:40:32.673Z,66.21
2024-02-02T15:42:59.104Z,66.00
2024-02-02T15:45:25.519Z,66.21
2024-02-02T15:47:52.290Z,65.59
2024-02-02T15:50:18.960Z,65.85
2024-02-02T15:52:45.344Z,65.76
2024-02-02T15:55:11.767Z,66.24
2024-02-02T15:57:38.207Z,66.24
2024-02-02T16:00:05.214Z,66.57
2024-02-02T16:02:31.701Z,67.05
2024-02-02T16:04:58.087Z,67.21
2024-02-02T16:07:24.571Z,67.11
2024-02-02T16:09:51.180Z,66.67
2024-02-02T16:12:17.676Z,66.97
2024-02-02T16:14:44.068Z,66.74
2024-02-02T16:17:10.449Z,67.70
2024-02-02T16:19:37.705Z,67.26
2024-02-02T16:22:04.381Z,67.17
2024-02-02T16:24:31.290Z,67.35
2024-02-02T16:26:57.674Z,67.65
2024-02-02T16:29:24.109Z,67.17
2024-02-02T16:31:50.502Z,67.13
2024-02-02T16:34:17.078Z,67.45
2024-02-02T16:36:45.780Z,67.13
2024-02-02T16:39:13.573Z,67.32
2024-02-02T16:41:44.774Z,67.46
2024-02-02T16:44:11.593Z,67.97
2024-02-02T16:46:42.281Z,67.65
2024-02-02T16:49:08.849Z,68.32
2024-02-02T16:51:37.345Z,68.00
2024-02-02T16:54:06.727Z,68.10
2024-02-02T16:56:33.089Z,68.42
2024-02-02T16:58:59.427Z,68.26
2024-02-02T17:01:33.654Z,67.63
2024-02-02T17:04:00.652Z,67.90
2024-02-02T17:06:27.403Z,67.70
2024-02-02T17:08:54.303Z,68.15
2024-02-02T17:11:21.597Z,67.72
2024-02-02T17:13:47.994Z,67.95
2024-02-02T17:16:14.825Z,67.96
2024-02-02T17:18:41.799Z,68.06
2024-02-02T17:21:08.783Z,67.66
2024-02-02T17:23:35.364Z,67.96
2024-02-02T17:26:02.445Z,68.13
2024-02-02T17:28:28.794Z,67.81
2024-02-02T17:30:55.226Z,68.04
2024-02-02T17:33:21.733Z,67.60
2024-02-02T17:35:48.173Z,67.36
2024-02-02T17:38:14.561Z,67.30
2024-02-02T17:40:41.591Z,67.30
2024-02-02T17:43:07.919Z,66.81
2024-02-02T17:45:34.948Z,67.47
2024-02-02T17:48:02.558Z,67.43
2024-02-02T17:50:29.106Z,67.48
2024-02-02T17:52:55.514Z,67.01
2024-02-02T17:55:21.973Z,67.61
2024-02-02T17:57:48.339Z,66.35
2024-02-02T18:00:15.140Z,67.47
2024-02-02T18:02:41.849Z,66.94
2024-02-02T18:05:08.431Z,66.66
2024-02-02T18:07:44.371Z,67.00
2024-02-02T18:10:14.347Z,67.25
2024-02-02T18:12:40.729Z,66.67
2024-02-02T18:15:08.500Z,66.93
2024-02-02T18:17:35.231Z,66.04
2024-02-02T18:20:02.205Z,66.72
2024-02-02T18:22:28.545Z,66.59
2024-02-02T18:24:54.905Z,67.36
2024-02-02T18:27:21.308Z,66.80
2024-02-02T18:29:47.699Z,67.10
2024-02-02T18:32:14.054Z,67.52
2024-02-02T18:34:40.563Z,66.65
2024-02-02T18:37:07.036Z,66.96
2024-02-02T18:39:33.403Z,67.54
2024-02-02T18:42:01.849Z,66.68
2024-02-02T18:44:30.083Z,66.33
2024-02-02T18:46:56.452Z,67.08
2024-02-02T18:49:22.871Z,66.47
2024-02-02T18:51:49.386Z,67.36
2024-02-02T18:54:15.772Z,67.51
2024-02-02T18:56:42.114Z,67.12
2024-02-02T18:59:08.447Z,67.46
2024-02-02T19:01:34.850Z,67.26
2024-02-02T19:04:01.802Z,67.71
2024-02-02T19:06:28.287Z,67.09
2024-02-02T19:08:54.669Z,67.39
2024-02-02T19:11:21.297Z,67.39
2024-02-02T19:13:48.470Z,67.49
2024-02-02T19:16:22.782Z,67.83
2024-02-02T19:18:50.051Z,68.17
2024-02-02T19:21:26.571Z,68.97
2024-02-02T19:23:53.743Z,68.23
2024-02-02T19:26:20.635Z,68.32
2024-02-02T19:28:47.007Z,69.08
2024-02-02T19:31:24.462Z,68.54
2024-02-02T19:33:51.431Z,68.49
2024-02-02T19:36:26.126Z,68.37
2024-02-02T19:38:53.265Z,68.66
2024-02-02T19:41:21.331Z,68.24
2024-02-02T19:43:48.522Z,68.79
2024-02-02T19:46:31.654Z,68.55
2024-02-02T19:49:01.356Z,68.62
2024-02-02T19:51:29.107Z,68.64
2024-02-02T19:53:55.913Z,68.86
2024-02-02T19:56:22.397Z,69.10
2024-02-02T19:58:49.940Z,68.88
2024-02-02T20:01:20.896Z,69.22
2024-02-02T20:03:48.759Z,69.27
2024-02-02T20:06:16.508Z,69.03
2024-02-02T20:08:44.377Z,69.20
2024-02-02T20:11:14.438Z,69.28
2024-02-02T20:13:44.267Z,68.91
2024-02-02T20:16:14.210Z,68.85
2024-02-02T20:18:40.784Z,69.36
2024-02-02T20:21:07.259Z,69.38
2024-02-02T20:23:33.646Z,69.35
2024-02-02T20:26:00.357Z,69.32
2024-02-02T20:28:26.699Z,69.77
2024-02-02T20:30:53.085Z,70.03
2024-02-02T20:33:19.601Z,69.89
2024-02-02T20:35:46.092Z,69.65
2024-02-02T20:38:12.543Z,69.99
2024-02-02T20:40:39.383Z,70.36
2024-02-02T20:43:05.915Z,69.77
2024-02-02T20:45:32.938Z,69.84
2024-02-02T20:47:59.363Z,69.79
2024-02-02T20:50:25.714Z,69.05
2024-02-02T20:52:52.087Z,68.66
2024-02-02T20:55:18.401Z,68.71
2024-02-02T20:57:44.947Z,68.75
2024-02-02T21:00:12.164Z,68.32
2024-02-02T21:02:39.344Z,67.81
2024-02-02T21:05:06.361Z,67.50
2024-02-02T21:07:33.424Z,67.98
2024-02-02T21:10:00.654Z,67.42
2024-02-02T21:12:27.083Z,67.89
2024-02-02T21:14:53.701Z,67.29
2024-02-02T21:17:20.027Z,67.95
2024-02-02T21:19:46.471Z,67.63
2024-02-02T21:22:13.022Z,67.60
2024-02-02T21:24:39.491Z,67.56
2024-02-02T21:27:05.933Z,67.73
2024-02-02T21:29:32.316Z,67.14
2024-02-02T21:31:58.638Z,67.51
2024-02-02T21:34:25.176Z,67.10
2024-02-02T21:36:51.621Z,67.64
2024-02-02T21:39:18.091Z,67.70
2024-02-02T21:41:44.532Z,67.69
2024-02-02T21:44:10.930Z,67.40
2024-02-02T21:46:37.349Z,67.91
2024-02-02T21:49:03.799Z,68.05
2024-02-02T21:51:30.328Z,68.27
2024-02-02T21:53:56.706Z,68.34
2024-02-02T21:56:23.064Z,67.92
2024-02-02T21:58:49.386Z,68.31
2024-02-02T22:01:15.895Z,68.35
2024-02-02T22:03:42.320Z,68.37
2024-02-02T22:06:09.430Z,67.82
2024-02-02T22:08:36.194Z,67.46
2024-02-02T22:11:03.096Z,67.72
2024-02-02T22:13:29.448Z,66.83
2024-02-02T22:15:55.848Z,66.73
2024-02-02T22:18:22.305Z,66.95
2024-02-02T22:20:48.711Z,66.62
2024-02-02T22:23:15.090Z,67.18
2024-02-02T22:25:41.449Z,67.59
2024-02-02T22:28:07.855Z,66.75
2024-02-02T22:30:34.259Z,66.30
2024-02-02T22:33:01.217Z,66.07
2024-02-02T22:35:27.575Z,66.97
2024-02-02T22:37:54.016Z,66.71
2024-02-02T22:40:20.367Z,65.78
2024-02-02T22:42:46.776Z,66.15
2024-02-02T22:45:13.229Z,65.60
2024-02-02T22:47:39.668Z,66.41
2024-02-02T22:50:08.050Z,66.97
2024-02-02T22:52:35.754Z,66.46
2024-02-02T22:55:02.074Z,65.90
2024-02-02T22:57:28.430Z,65.74
2024-02-02T22:59:59.754Z,66.77
2024-02-02T23:02:29.076Z,65.86
2024-02-02T23:04:55.428Z,66.48
2024-02-02T23:07:21.877Z,66.55
2024-02-02T23:09:48.609Z,66.78
2024-02-02T23:12:15.062Z,67.37
2024-02-02T23:14:41.463Z,67.35
2024-02-02T23:17:07.801Z,67.68
2024-02-02T23:19:35.873Z,66.26
2024-02-02T23:22:04.089Z,66.28
2024-02-02T23:24:30.457Z,67.06
2024-02-02T23:26:56.809Z,66.66
2024-02-02T23:29:23.153Z,66.26
2024-02-02T23:31:49.489Z,66.48
2024-02-02T23:34:15.943Z,67.01
2024-02-02T23:36:42.438Z,66.34
2024-02-02T23:39:08.825Z,67.24
2024-02-02T23:41:35.195Z,67.14
2024-02-02T23:44:01.529Z,67.89
2024-02-02T23:46:27.869Z,67.42
2024-02-02T23:48:54.820Z,67.48
2024-02-02T23:51:21.188Z,67.99
2024-02-02T23:53:47.546Z,67.97
2024-02-02T23:56:13.888Z,68.17
2024-02-02T23:58:40.246Z,67.86
